Time;durP1;ratioP1;P1;durP2;ratioP2;P2;SDS_P1;SDS_P2;PMS_P1;PMS_P2;Temp;Humidity;BMP_temperature;BMP_pressure;BME280_temperature;BME280_humidity;BME280_pressure;Samples;Min_cycle;Max_cycle;Signal;HPM_P1;HPM_P2
2022/10/11 00:01:07;;;;;;;15.02;4.22;;;11.00;99.10;;;;;;5036034;28;20479;-83
2022/10/11 00:03:33;;;;;;;11.05;3.42;;;11.00;99.20;;;;;;5034768;28;20120;-83
2022/10/11 00:06:01;;;;;;;11.00;3.78;;;11.00;99.30;;;;;;5035712;28;20187;-83
2022/10/11 00:08:27;;;;;;;13.90;4.32;;;10.90;99.20;;;;;;4998965;28;20064;-83
2022/10/11 00:11:39;;;;;;;11.52;4.18;;;10.90;99.30;;;;;;5017826;28;20021;-84
2022/10/11 00:14:05;;;;;;;14.35;4.35;;;10.90;99.30;;;;;;5021981;28;20374;-83
2022/10/11 00:16:31;;;;;;;12.48;4.57;;;10.80;99.20;;;;;;5020837;28;20110;-83
2022/10/11 00:18:56;;;;;;;10.25;4.50;;;10.80;99.20;;;;;;5027499;28;20030;-83
2022/10/11 00:21:22;;;;;;;8.25;3.35;;;10.80;99.20;;;;;;5013960;28;20038;-83
2022/10/11 00:23:48;;;;;;;4.43;2.78;;;10.80;99.20;;;;;;5031833;28;20482;-84
2022/10/11 00:26:14;;;;;;;4.70;2.35;;;10.70;99.10;;;;;;5007443;28;20026;-84
2022/10/11 00:28:40;;;;;;;8.18;2.85;;;10.60;99.00;;;;;;5029302;28;20053;-84
2022/10/11 00:31:12;;;;;;;9.15;2.72;;;10.60;99.10;;;;;;5041583;28;20029;-84
2022/10/11 00:33:38;;;;;;;7.70;3.03;;;10.60;99.20;;;;;;5026349;28;20482;-84
2022/10/11 00:36:04;;;;;;;6.90;2.35;;;10.50;99.20;;;;;;5034106;28;20108;-84
2022/10/11 00:38:30;;;;;;;5.53;2.28;;;10.50;99.20;;;;;;5035881;28;20478;-83
2022/10/11 00:40:56;;;;;;;8.45;2.30;;;10.50;99.50;;;;;;5026380;28;20024;-83
2022/10/11 00:43:25;;;;;;;5.45;2.40;;;10.50;99.30;;;;;;5050401;28;20025;-83
2022/10/11 00:45:56;;;;;;;5.88;2.50;;;10.50;99.20;;;;;;5039178;28;20059;-83
2022/10/11 00:48:41;;;;;;;5.85;2.03;;;10.40;99.20;;;;;;5053303;28;20080;-84
2022/10/11 00:51:15;;;;;;;6.30;3.13;;;10.40;99.20;;;;;;5031667;28;20036;-84
2022/10/11 00:53:42;;;;;;;5.00;2.30;;;10.40;99.40;;;;;;5038818;28;20025;-84
2022/10/11 00:56:21;;;;;;;4.78;2.35;;;10.30;99.30;;;;;;5033027;28;20022;-84
2022/10/11 00:58:47;;;;;;;6.22;2.92;;;10.30;99.30;;;;;;5033142;28;20022;-84
2022/10/11 01:01:12;;;;;;;8.40;2.80;;;10.30;99.60;;;;;;5020674;28;20041;-84
2022/10/11 01:03:39;;;;;;;7.88;3.22;;;10.20;99.30;;;;;;5030058;28;20029;-83
2022/10/11 01:06:05;;;;;;;7.78;2.80;;;10.20;99.30;;;;;;5036356;28;20017;-84
2022/10/11 01:08:31;;;;;;;5.90;2.67;;;10.20;99.30;;;;;;5053104;28;20025;-84
2022/10/11 01:10:57;;;;;;;6.20;2.42;;;10.20;99.40;;;;;;5036751;28;20017;-84
2022/10/11 01:13:49;;;;;;;7.38;2.55;;;10.10;99.30;;;;;;5026297;28;20048;-84
2022/10/11 01:16:30;;;;;;;4.97;2.03;;;10.10;99.30;;;;;;5039406;28;20051;-83
2022/10/11 01:19:06;;;;;;;6.35;2.42;;;10.10;99.40;;;;;;5060198;28;20044;-84
2022/10/11 01:21:47;;;;;;;5.65;2.30;;;10.00;99.40;;;;;;5055043;28;20079;-84
2022/10/11 01:24:41;;;;;;;9.77;2.35;;;10.00;99.50;;;;;;5050828;28;20508;-83
2022/10/11 01:27:28;;;;;;;5.68;2.10;;;10.00;99.60;;;;;;5006918;28;20079;-82
2022/10/11 01:30:13;;;;;;;7.32;2.72;;;10.00;99.70;;;;;;5033303;28;20491;-83
2022/10/11 01:32:51;;;;;;;5.15;2.08;;;10.00;99.70;;;;;;5046741;28;20056;-83
2022/10/11 01:35:26;;;;;;;8.70;2.70;;;9.90;99.60;;;;;;5012182;28;20040;-83
2022/10/11 01:38:20;;;;;;;9.02;2.92;;;9.90;99.60;;;;;;5014463;28;20045;-82
2022/10/11 01:41:04;;;;;;;6.65;2.88;;;9.90;99.80;;;;;;5022032;28;20034;-82
2022/10/11 01:43:32;;;;;;;11.60;3.50;;;9.90;99.90;;;;;;5012931;28;20077;-82
2022/10/11 01:46:00;;;;;;;12.48;4.35;;;9.90;99.90;;;;;;5007548;28;20103;-82
2022/10/11 01:48:26;;;;;;;12.15;2.95;;;9.80;99.90;;;;;;5045034;28;20486;-82
2022/10/11 01:50:57;;;;;;;8.32;3.50;;;9.80;99.90;;;;;;4996070;28;20041;-82
2022/10/11 01:53:41;;;;;;;11.73;3.60;;;9.80;99.90;;;;;;5044407;28;20100;-82
2022/10/11 01:56:21;;;;;;;10.60;3.47;;;9.80;99.90;;;;;;5032888;28;20453;-82
2022/10/11 01:58:59;;;;;;;8.18;3.15;;;9.80;99.90;;;;;;5013745;28;20030;-82
2022/10/11 02:01:51;;;;;;;12.85;3.85;;;9.70;99.90;;;;;;5037568;28;20120;-82
2022/10/11 02:05:01;;;;;;;10.20;3.53;;;9.70;99.90;;;;;;5053384;28;20025;-82
2022/10/11 02:07:47;;;;;;;13.13;3.83;;;9.70;99.90;;;;;;4976677;28;20427;-82
2022/10/11 02:10:30;;;;;;;11.77;3.90;;;9.70;99.90;;;;;;5042887;28;20033;-82
2022/10/11 02:13:14;;;;;;;9.38;3.35;;;9.70;99.90;;;;;;5043896;28;20018;-82
2022/10/11 02:15:42;;;;;;;13.80;3.70;;;9.70;99.90;;;;;;5040292;28;20025;-82
2022/10/11 02:18:14;;;;;;;10.25;3.78;;;9.70;99.90;;;;;;5052247;28;20111;-82
2022/10/11 02:20:41;;;;;;;11.80;3.40;;;9.70;99.90;;;;;;5039421;28;20051;-82
2022/10/11 02:23:15;;;;;;;7.72;3.25;;;9.70;99.90;;;;;;5043815;28;20100;-82
2022/10/11 02:25:43;;;;;;;11.27;3.50;;;9.60;99.90;;;;;;5045534;28;20512;-82
2022/10/11 02:28:15;;;;;;;11.85;3.42;;;9.60;99.90;;;;;;5026963;28;20037;-82
2022/10/11 02:30:43;;;;;;;9.18;3.53;;;9.60;99.90;;;;;;5037829;28;20029;-82
2022/10/11 02:36:46;;;;;;;7.90;2.85;;;9.50;99.90;;;;;;5035350;28;20055;-82
2022/10/11 02:39:41;;;;;;;9.00;2.80;;;9.50;99.90;;;;;;5044888;28;20385;-82
2022/10/11 02:42:17;;;;;;;11.13;2.97;;;9.50;99.90;;;;;;5026710;28;20049;-82
2022/10/11 02:44:52;;;;;;;7.18;3.47;;;9.50;99.90;;;;;;5041552;28;20029;-82
2022/10/11 02:47:17;;;;;;;11.02;3.22;;;9.40;99.90;;;;;;5036761;28;20028;-82
2022/10/11 02:49:44;;;;;;;8.55;3.55;;;9.40;99.90;;;;;;5049651;28;20025;-82
2022/10/11 02:52:09;;;;;;;6.13;3.20;;;9.40;99.90;;;;;;5035539;28;20033;-84
2022/10/11 02:54:35;;;;;;;7.25;3.45;;;9.40;99.90;;;;;;5035842;28;20033;-82
2022/10/11 02:57:01;;;;;;;8.20;2.95;;;9.30;99.90;;;;;;5005168;28;20421;-82
2022/10/11 02:59:27;;;;;;;7.03;2.40;;;9.30;99.90;;;;;;5035316;28;20096;-82
2022/10/11 03:01:52;;;;;;;5.53;1.98;;;9.30;99.90;;;;;;5021280;28;20037;-82
2022/10/11 03:04:18;;;;;;;3.15;1.70;;;9.30;99.90;;;;;;5038051;28;20030;-82
2022/10/11 03:06:44;;;;;;;5.35;1.98;;;9.20;99.90;;;;;;5028140;28;20155;-82
2022/10/11 03:09:09;;;;;;;3.53;1.58;;;9.20;99.90;;;;;;5054090;28;20531;-82
2022/10/11 03:11:35;;;;;;;8.70;1.88;;;9.20;99.90;;;;;;5042760;28;20438;-82
2022/10/11 03:14:01;;;;;;;2.75;1.70;;;9.10;99.90;;;;;;5032414;28;20084;-82
2022/10/11 03:16:26;;;;;;;3.78;1.83;;;9.10;99.90;;;;;;5035008;28;20037;-84
2022/10/11 03:18:52;;;;;;;3.53;2.00;;;9.10;99.90;;;;;;5004252;28;20029;-84
2022/10/11 03:21:18;;;;;;;4.95;2.00;;;9.10;99.90;;;;;;5055984;28;20025;-84
2022/10/11 03:23:43;;;;;;;4.38;1.98;;;9.00;99.90;;;;;;5054504;28;20025;-84
2022/10/11 03:26:09;;;;;;;4.82;2.40;;;9.00;99.90;;;;;;5038129;28;20189;-84
2022/10/11 03:28:35;;;;;;;7.72;2.20;;;9.00;99.90;;;;;;5006525;28;20483;-85
2022/10/11 03:31:00;;;;;;;4.85;2.20;;;9.00;99.90;;;;;;5024280;28;20032;-85
2022/10/11 03:33:26;;;;;;;6.70;2.35;;;8.90;99.90;;;;;;5037966;28;20529;-85
2022/10/11 03:35:52;;;;;;;5.93;2.22;;;8.90;99.90;;;;;;5037778;28;20029;-85
2022/10/11 03:38:20;;;;;;;6.07;3.15;;;8.90;99.90;;;;;;5054428;28;20033;-85
2022/10/11 03:40:46;;;;;;;6.25;2.80;;;8.90;99.90;;;;;;5041800;28;20025;-85
2022/10/11 03:43:12;;;;;;;6.22;2.30;;;8.90;99.90;;;;;;5054371;28;20040;-85
2022/10/11 03:45:38;;;;;;;6.22;2.38;;;8.90;99.90;;;;;;5006588;28;20026;-85
2022/10/11 03:48:04;;;;;;;7.93;2.78;;;8.90;99.90;;;;;;5035328;28;20023;-85
2022/10/11 03:50:30;;;;;;;7.45;3.58;;;8.90;99.90;;;;;;5021530;28;20017;-85
2022/10/11 03:52:55;;;;;;;8.27;3.03;;;8.90;99.90;;;;;;5054181;28;20377;-85
2022/10/11 03:55:21;;;;;;;9.52;3.00;;;8.90;99.90;;;;;;5048029;28;20040;-85
2022/10/11 03:57:47;;;;;;;7.88;3.63;;;8.90;99.90;;;;;;4997775;28;20387;-85
2022/10/11 04:00:13;;;;;;;8.38;3.60;;;8.80;99.90;;;;;;5019711;28;20026;-85
2022/10/11 04:02:58;;;;;;;7.88;3.35;;;8.90;99.90;;;;;;5045831;28;20425;-85
2022/10/11 04:05:24;;;;;;;10.70;3.60;;;8.90;99.90;;;;;;5009974;28;20075;-85
2022/10/11 04:07:50;;;;;;;8.75;3.72;;;8.90;99.90;;;;;;5009143;28;20430;-86
2022/10/11 04:10:15;;;;;;;10.32;3.88;;;8.90;99.90;;;;;;5043857;28;20014;-86
2022/10/11 04:12:41;;;;;;;9.45;3.55;;;8.90;99.90;;;;;;5007987;28;20033;-85
2022/10/11 04:15:07;;;;;;;6.22;3.47;;;8.90;99.90;;;;;;5020456;28;20103;-86
2022/10/11 04:17:33;;;;;;;8.63;4.18;;;8.90;99.90;;;;;;5038030;28;20036;-85
2022/10/11 04:19:59;;;;;;;9.55;3.60;;;8.90;99.90;;;;;;5040198;28;20025;-85
2022/10/11 04:22:27;;;;;;;8.95;3.38;;;8.90;99.90;;;;;;5037445;28;20083;-85
2022/10/11 04:24:53;;;;;;;9.85;3.70;;;8.90;99.90;;;;;;5025191;28;20025;-86
2022/10/11 04:27:18;;;;;;;11.00;3.90;;;8.90;99.90;;;;;;5002913;28;20160;-85
2022/10/11 04:29:44;;;;;;;11.85;3.33;;;8.90;99.90;;;;;;5026089;28;20125;-85
2022/10/11 04:32:10;;;;;;;7.82;3.38;;;8.90;99.90;;;;;;5029013;28;20393;-84
2022/10/11 04:34:35;;;;;;;11.82;3.85;;;8.90;99.90;;;;;;5015730;28;20041;-84
2022/10/11 04:37:01;;;;;;;8.43;3.70;;;8.90;99.90;;;;;;5029939;28;20037;-84
2022/10/11 04:39:26;;;;;;;11.20;4.20;;;8.90;99.90;;;;;;5033518;28;20433;-83
2022/10/11 04:41:52;;;;;;;9.95;3.90;;;8.90;99.90;;;;;;5016739;28;20083;-81
2022/10/11 04:44:18;;;;;;;8.57;3.83;;;8.90;99.90;;;;;;5033469;28;20034;-83
2022/10/11 04:46:43;;;;;;;9.85;3.33;;;8.90;99.90;;;;;;5016878;28;20488;-84
2022/10/11 04:49:09;;;;;;;8.30;3.70;;;8.90;99.90;;;;;;5013480;28;20103;-84
2022/10/11 04:51:35;;;;;;;9.20;3.85;;;8.90;99.90;;;;;;5023938;28;20422;-84
2022/10/11 04:54:00;;;;;;;10.63;3.92;;;8.90;99.90;;;;;;4999760;28;20026;-84
2022/10/11 04:56:26;;;;;;;11.85;4.22;;;8.90;99.90;;;;;;5016736;28;20022;-84
2022/10/11 04:58:53;;;;;;;10.18;4.20;;;8.90;99.90;;;;;;5033220;28;20055;-83
2022/10/11 05:01:20;;;;;;;10.85;5.38;;;9.00;99.90;;;;;;5016614;28;20052;-83
2022/10/11 05:03:46;;;;;;;7.75;3.92;;;8.90;99.90;;;;;;5033515;28;20017;-84
2022/10/11 05:06:21;;;;;;;8.10;3.72;;;8.90;99.90;;;;;;5020464;28;20046;-88
2022/10/11 05:08:47;;;;;;;12.52;4.68;;;9.00;99.90;;;;;;5044983;28;20093;-82
2022/10/11 05:11:14;;;;;;;11.02;4.40;;;9.00;99.90;;;;;;5022664;28;20438;-83
2022/10/11 05:13:40;;;;;;;10.65;4.50;;;8.90;99.90;;;;;;5016339;28;20029;-84
2022/10/11 05:16:10;;;;;;;11.80;4.18;;;8.90;99.90;;;;;;5007085;28;20018;-82
2022/10/11 05:18:35;;;;;;;11.40;4.22;;;8.90;99.90;;;;;;5027386;28;20384;-82
2022/10/11 05:21:05;;;;;;;11.43;4.53;;;8.90;99.90;;;;;;5026700;28;20063;-84
2022/10/11 05:23:32;;;;;;;10.45;4.40;;;8.90;99.90;;;;;;5033935;28;20025;-84
2022/10/11 05:25:58;;;;;;;14.85;5.88;;;8.90;99.90;;;;;;5016947;28;20343;-84
2022/10/11 05:28:25;;;;;;;10.70;4.18;;;8.90;99.90;;;;;;5032695;28;20037;-84
2022/10/11 05:30:51;;;;;;;5.85;3.00;;;8.80;99.90;;;;;;5032922;28;20367;-84
2022/10/11 05:33:16;;;;;;;8.52;4.15;;;8.80;99.90;;;;;;5016542;28;20036;-82
2022/10/11 05:35:42;;;;;;;6.55;3.45;;;8.80;99.90;;;;;;5032791;28;20041;-85
2022/10/11 05:38:09;;;;;;;7.38;3.40;;;8.80;99.90;;;;;;5032656;28;20061;-85
2022/10/11 05:40:36;;;;;;;6.72;3.00;;;8.80;99.90;;;;;;5010067;28;20033;-85
2022/10/11 05:43:02;;;;;;;7.35;2.80;;;8.70;99.90;;;;;;5008802;28;20037;-85
2022/10/11 05:45:28;;;;;;;4.38;2.60;;;8.70;99.90;;;;;;5015991;28;20028;-84
2022/10/11 05:47:54;;;;;;;7.60;3.00;;;8.70;99.90;;;;;;5032445;28;20075;-84
2022/10/11 05:50:20;;;;;;;4.78;2.78;;;8.70;99.90;;;;;;5013550;28;20113;-84
2022/10/11 05:52:46;;;;;;;4.40;2.58;;;8.70;99.90;;;;;;5021267;28;20432;-84
2022/10/11 05:55:11;;;;;;;5.22;2.90;;;8.70;99.90;;;;;;5016098;28;20052;-83
2022/10/11 05:57:37;;;;;;;6.25;2.92;;;8.60;99.90;;;;;;5015885;28;20497;-83
2022/10/11 06:00:04;;;;;;;4.88;2.70;;;8.60;99.90;;;;;;5017928;28;20125;-83
2022/10/11 06:02:30;;;;;;;5.45;3.10;;;8.60;99.90;;;;;;5016183;28;20114;-85
2022/10/11 06:04:55;;;;;;;6.30;2.88;;;8.60;99.90;;;;;;5034382;28;20053;-84
2022/10/11 06:07:21;;;;;;;5.50;2.92;;;8.60;99.90;;;;;;5018637;28;20058;-84
2022/10/11 06:09:50;;;;;;;5.43;2.63;;;8.50;99.90;;;;;;5013056;28;20054;-85
2022/10/11 06:12:16;;;;;;;6.20;2.90;;;8.50;99.90;;;;;;5026871;28;20026;-82
2022/10/11 06:14:42;;;;;;;7.88;2.90;;;8.50;99.90;;;;;;5013480;28;20037;-84
2022/10/11 06:17:08;;;;;;;9.38;3.25;;;8.50;99.90;;;;;;4996882;28;20034;-84
2022/10/11 06:19:40;;;;;;;8.35;3.00;;;8.50;99.90;;;;;;4996095;28;20032;-85
2022/10/11 06:22:05;;;;;;;6.53;3.10;;;8.50;99.90;;;;;;5012585;28;20034;-85
2022/10/11 06:24:31;;;;;;;5.97;3.22;;;8.50;99.90;;;;;;5018449;28;20057;-84
2022/10/11 06:26:56;;;;;;;7.22;3.28;;;8.40;99.90;;;;;;5016823;28;20084;-82
2022/10/11 06:29:22;;;;;;;8.20;3.70;;;8.50;99.90;;;;;;5029975;28;20499;-82
2022/10/11 06:31:48;;;;;;;7.13;3.53;;;8.50;99.90;;;;;;5019324;28;20406;-82
2022/10/11 06:34:14;;;;;;;8.60;4.20;;;8.50;99.90;;;;;;5038157;28;20100;-86
2022/10/11 06:36:40;;;;;;;8.10;4.15;;;8.50;99.90;;;;;;5009116;28;20052;-86
2022/10/11 06:39:06;;;;;;;7.68;3.80;;;8.50;99.90;;;;;;5034360;28;20025;-85
2022/10/11 06:41:41;;;;;;;9.38;4.20;;;8.50;99.90;;;;;;5017856;28;20029;-85
2022/10/11 06:44:13;;;;;;;6.72;3.00;;;8.50;99.90;;;;;;4979612;22;20060;-92
2022/10/11 06:46:39;;;;;;;12.80;4.60;;;8.50;99.90;;;;;;4924103;29;20067;-92
2022/10/11 06:49:05;;;;;;;12.60;4.85;;;8.50;99.90;;;;;;4937473;29;20020;-91
2022/10/11 06:51:34;;;;;;;12.93;4.40;;;8.50;99.90;;;;;;4937432;29;20024;-92
2022/10/11 06:54:01;;;;;;;11.45;4.10;;;8.50;99.90;;;;;;4935514;29;20035;-91
2022/10/11 06:56:30;;;;;;;19.23;4.47;;;8.60;99.90;;;;;;4937652;29;20024;-90
2022/10/11 06:59:02;;;;;;;10.60;5.00;;;8.60;99.90;;;;;;4925540;29;20047;-94
2022/10/11 07:01:38;;;;;;;8.90;4.00;;;8.60;99.90;;;;;;4936225;29;20008;-94
2022/10/11 07:04:07;;;;;;;14.10;5.95;;;8.60;99.90;;;;;;4949453;29;20028;-92
2022/10/11 07:06:36;;;;;;;12.30;5.43;;;8.60;99.90;;;;;;4949004;29;20084;-92
2022/10/11 07:09:05;;;;;;;12.63;5.20;;;8.70;99.90;;;;;;4946579;29;20036;-91
2022/10/11 07:11:36;;;;;;;13.73;5.40;;;8.70;99.90;;;;;;4953681;29;20027;-94
2022/10/11 07:14:06;;;;;;;14.90;5.07;;;8.80;99.90;;;;;;4936618;29;20488;-94
2022/10/11 07:16:35;;;;;;;15.32;5.72;;;8.80;99.90;;;;;;4923505;29;20032;-93
2022/10/11 07:19:05;;;;;;;10.55;5.20;;;8.80;99.90;;;;;;4938493;29;20016;-94
2022/10/11 07:21:32;;;;;;;11.35;4.70;;;8.90;99.90;;;;;;4933510;29;20017;-91
2022/10/11 07:24:03;;;;;;;13.88;4.80;;;9.00;99.90;;;;;;4915188;29;20095;-93
2022/10/11 07:26:32;;;;;;;11.40;5.22;;;9.00;99.90;;;;;;4932826;29;20476;-92
2022/10/11 07:29:00;;;;;;;11.48;4.97;;;9.10;99.90;;;;;;4929396;29;20042;-91
2022/10/11 07:31:29;;;;;;;11.23;4.88;;;9.10;99.90;;;;;;4928486;29;20084;-92
2022/10/11 07:33:54;;;;;;;10.90;5.80;;;9.20;99.90;;;;;;4919479;29;20021;-89
2022/10/11 07:36:22;;;;;;;9.13;4.28;;;9.20;99.90;;;;;;4935821;29;20052;-92
2022/10/11 07:38:49;;;;;;;13.07;4.82;;;9.20;99.90;;;;;;4926697;29;20025;-90
2022/10/11 07:41:15;;;;;;;9.23;4.63;;;9.30;99.90;;;;;;4928146;29;20026;-90
2022/10/11 07:43:45;;;;;;;14.00;5.50;;;9.30;99.90;;;;;;4936750;29;20052;-88
2022/10/11 07:46:14;;;;;;;16.63;5.55;;;9.40;99.90;;;;;;4953627;29;20124;-88
2022/10/11 07:48:40;;;;;;;11.27;4.57;;;9.40;99.90;;;;;;4927967;29;20036;-90
2022/10/11 07:51:09;;;;;;;12.98;5.90;;;9.40;99.90;;;;;;4942454;29;20048;-89
2022/10/11 07:53:43;;;;;;;12.85;5.15;;;9.50;99.90;;;;;;4941025;29;20040;-90
2022/10/11 07:56:11;;;;;;;11.32;4.97;;;9.50;99.90;;;;;;4948978;29;20102;-88
2022/10/11 07:58:37;;;;;;;14.18;5.20;;;9.60;99.90;;;;;;4948363;29;20024;-91
2022/10/11 08:01:03;;;;;;;16.40;4.90;;;9.60;99.90;;;;;;4951944;29;20024;-89
2022/10/11 08:03:29;;;;;;;10.95;5.07;;;9.60;99.90;;;;;;4929774;29;20043;-87
2022/10/11 08:06:03;;;;;;;13.70;5.88;;;9.70;99.90;;;;;;4905465;29;20029;-89
2022/10/11 08:08:29;;;;;;;13.38;5.93;;;9.70;99.90;;;;;;4939718;29;20024;-89
2022/10/11 08:10:56;;;;;;;12.02;5.32;;;9.70;99.90;;;;;;4926199;29;20048;-89
2022/10/11 08:13:24;;;;;;;12.90;5.05;;;9.80;99.90;;;;;;4936508;29;20048;-91
2022/10/11 08:18:18;;;;;;;20.35;6.18;;;9.80;99.90;;;;;;4981405;28;20053;-86
2022/10/11 08:20:47;;;;;;;12.05;5.75;;;9.90;99.90;;;;;;4963943;28;20031;-84
2022/10/11 08:23:13;;;;;;;15.95;5.43;;;9.90;99.90;;;;;;4993899;28;20041;-89
2022/10/11 08:25:45;;;;;;;13.02;6.32;;;10.00;99.90;;;;;;5013574;28;20042;-90
2022/10/11 08:28:17;;;;;;;14.07;5.38;;;10.00;99.90;;;;;;5009475;28;20023;-90
2022/10/11 08:30:51;;;;;;;13.15;5.03;;;10.00;99.90;;;;;;4971929;28;20031;-92
2022/10/11 08:33:18;;;;;;;18.20;5.85;;;10.10;99.90;;;;;;4999322;28;20029;-90
2022/10/11 08:35:44;;;;;;;12.07;4.50;;;10.10;99.90;;;;;;4955054;28;20034;-92
2022/10/11 08:38:09;;;;;;;11.80;4.85;;;10.20;99.90;;;;;;4944437;28;20030;-89
2022/10/11 08:40:35;;;;;;;11.70;5.20;;;10.20;99.90;;;;;;4968001;28;20038;-89
2022/10/11 08:43:06;;;;;;;13.98;5.10;;;10.30;99.90;;;;;;4999414;28;20024;-89
2022/10/11 08:45:41;;;;;;;10.90;5.15;;;10.30;99.90;;;;;;4973066;28;20031;-90
2022/10/11 08:48:17;;;;;;;11.40;4.82;;;10.40;99.90;;;;;;4976555;28;20026;-90
2022/10/11 08:50:48;;;;;;;14.95;4.50;;;10.40;99.90;;;;;;4993099;28;20030;-90
2022/10/11 08:53:43;;;;;;;22.27;5.55;;;10.50;99.90;;;;;;4995840;28;20537;-91
2022/10/11 08:56:12;;;;;;;12.15;4.45;;;10.60;99.90;;;;;;4996005;28;20110;-90
2022/10/11 08:58:55;;;;;;;13.23;4.72;;;10.70;99.90;;;;;;4984999;28;20031;-90
2022/10/11 09:01:24;;;;;;;11.45;4.40;;;10.70;99.90;;;;;;4965233;28;20068;-91
2022/10/11 09:03:50;;;;;;;14.52;4.22;;;10.80;99.90;;;;;;4989232;28;20014;-90
2022/10/11 09:06:22;;;;;;;17.02;4.63;;;10.90;99.90;;;;;;4961379;28;20026;-91
2022/10/11 09:09:09;;;;;;;14.93;4.00;;;10.90;99.90;;;;;;5004630;28;20026;-90
2022/10/11 09:11:49;;;;;;;11.70;3.92;;;11.10;99.90;;;;;;4986669;28;20057;-90
2022/10/11 09:14:24;;;;;;;11.95;3.70;;;11.10;99.90;;;;;;4996080;28;20022;-90
2022/10/11 09:17:14;;;;;;;11.50;3.72;;;11.20;99.90;;;;;;5011456;28;20046;-89
2022/10/11 09:20:03;;;;;;;18.08;5.05;;;11.30;99.90;;;;;;4995484;28;20496;-89
2022/10/11 09:22:55;;;;;;;13.32;4.10;;;11.40;99.90;;;;;;5007538;28;20034;-89
2022/10/11 09:25:24;;;;;;;12.00;4.45;;;11.50;99.90;;;;;;4985099;28;20420;-89
2022/10/11 09:27:58;;;;;;;13.98;4.60;;;11.60;99.90;;;;;;5008787;28;20053;-90
2022/10/11 09:30:24;;;;;;;13.05;4.32;;;11.70;99.90;;;;;;5004216;28;20056;-90
2022/10/11 09:33:11;;;;;;;14.98;5.15;;;11.80;99.90;;;;;;5001183;28;20038;-89
2022/10/11 09:35:44;;;;;;;11.57;3.72;;;11.90;99.90;;;;;;4984404;28;20029;-89
2022/10/11 09:38:13;;;;;;;9.88;3.85;;;12.00;99.90;;;;;;4985266;28;20030;-89
2022/10/11 09:41:00;;;;;;;12.77;3.75;;;12.10;99.90;;;;;;4994999;28;20026;-89
2022/10/11 09:43:26;;;;;;;11.70;3.30;;;12.20;99.90;;;;;;4995165;28;20027;-89
2022/10/11 09:45:52;;;;;;;13.60;3.35;;;12.30;99.90;;;;;;4992565;28;20325;-89
2022/10/11 09:48:37;;;;;;;11.00;3.10;;;12.40;99.90;;;;;;4998667;28;20080;-89
2022/10/11 09:51:13;;;;;;;9.88;3.67;;;12.50;99.90;;;;;;4995068;28;20101;-89
2022/10/11 09:54:04;;;;;;;16.17;3.55;;;12.60;99.90;;;;;;4995171;28;20058;-90
2022/10/11 09:56:31;;;;;;;10.30;2.85;;;12.70;99.90;;;;;;4994429;28;20108;-90
2022/10/11 09:59:20;;;;;;;15.55;3.53;;;12.80;99.90;;;;;;4978992;28;20034;-90
2022/10/11 10:01:46;;;;;;;12.02;3.05;;;12.90;99.90;;;;;;4995345;28;20034;-90
2022/10/11 10:04:15;;;;;;;8.30;2.97;;;13.00;99.90;;;;;;4989156;28;20030;-89
2022/10/11 10:06:42;;;;;;;13.18;3.35;;;13.10;99.90;;;;;;4998095;28;20010;-90
2022/10/11 10:09:29;;;;;;;12.85;2.97;;;13.20;99.90;;;;;;4995581;28;20023;-89
2022/10/11 10:11:56;;;;;;;12.48;2.65;;;13.40;99.90;;;;;;5014143;28;20022;-90
2022/10/11 10:14:25;;;;;;;10.95;2.45;;;13.40;99.90;;;;;;4976642;28;20035;-90
2022/10/11 10:17:00;;;;;;;11.43;2.13;;;13.50;99.90;;;;;;4979426;28;20042;-89
2022/10/11 10:19:26;;;;;;;7.45;2.38;;;13.70;99.90;;;;;;4994940;28;20027;-90
2022/10/11 10:21:54;;;;;;;10.82;2.40;;;13.80;99.90;;;;;;4995389;28;20124;-89
2022/10/11 10:24:40;;;;;;;11.88;2.47;;;13.90;99.90;;;;;;5004224;28;20027;-85
2022/10/11 10:27:24;;;;;;;12.40;2.88;;;14.00;99.90;;;;;;4992765;28;20011;-84
2022/10/11 10:30:08;;;;;;;10.45;3.42;;;14.20;99.90;;;;;;4986014;28;20050;-85
2022/10/11 10:32:56;;;;;;;12.18;2.47;;;14.30;99.90;;;;;;4989091;28;20030;-84
2022/10/11 10:35:36;;;;;;;8.07;2.15;;;14.40;99.90;;;;;;4992464;28;20475;-88
2022/10/11 10:38:30;;;;;;;10.18;2.60;;;14.50;99.90;;;;;;4992806;28;20122;-89
2022/10/11 10:41:02;;;;;;;15.20;3.80;;;14.60;99.90;;;;;;4984526;28;20023;-88
2022/10/11 10:43:39;;;;;;;9.05;2.53;;;14.80;99.90;;;;;;5007713;28;20053;-87
2022/10/11 10:46:23;;;;;;;10.95;2.60;;;14.90;99.90;;;;;;4993931;28;20022;-87
2022/10/11 10:49:24;;;;;;;8.13;2.00;;;15.00;99.90;;;;;;4993520;28;20528;-88
2022/10/11 10:52:29;;;;;;;11.07;2.80;;;15.10;99.90;;;;;;5007921;28;20394;-88
2022/10/11 10:55:13;;;;;;;13.45;2.67;;;15.20;99.90;;;;;;5001890;28;20030;-88
2022/10/11 10:57:47;;;;;;;11.80;2.45;;;15.30;99.90;;;;;;5000739;28;20021;-89
2022/10/11 11:00:19;;;;;;;9.45;2.13;;;15.50;99.90;;;;;;4987496;28;20125;-90
2022/10/11 11:03:01;;;;;;;7.43;2.05;;;15.60;99.90;;;;;;4990553;28;20053;-89
2022/10/11 11:06:06;;;;;;;8.27;2.03;;;15.70;99.90;;;;;;5002261;28;20080;-90
2022/10/11 11:09:03;;;;;;;12.00;2.97;;;15.80;99.70;;;;;;5016885;28;20141;-91
2022/10/11 11:11:35;;;;;;;13.23;2.70;;;15.90;99.20;;;;;;4986249;28;20037;-91
2022/10/11 11:14:10;;;;;;;10.65;2.58;;;16.10;99.20;;;;;;4998467;28;20106;-89
2022/10/11 11:16:58;;;;;;;8.27;2.20;;;16.20;99.20;;;;;;4989433;28;20129;-91
2022/10/11 11:19:27;;;;;;;11.30;2.83;;;16.30;99.20;;;;;;5002469;28;20014;-90
2022/10/11 11:22:00;;;;;;;10.32;2.97;;;16.40;99.10;;;;;;4997239;28;20042;-90
2022/10/11 11:24:37;;;;;;;10.93;2.47;;;16.50;98.60;;;;;;4997430;28;20026;-90
2022/10/11 11:27:43;;;;;;;13.05;2.10;;;16.60;97.90;;;;;;5004938;28;20029;-91
2022/10/11 11:30:29;;;;;;;12.82;2.83;;;16.70;97.50;;;;;;4989120;28;20038;-91
2022/10/11 11:33:19;;;;;;;10.07;2.20;;;16.80;96.90;;;;;;4996828;28;20034;-88
2022/10/11 11:35:51;;;;;;;10.93;2.00;;;16.90;96.60;;;;;;4997426;28;20045;-87
2022/10/11 11:38:49;;;;;;;11.13;2.40;;;17.00;96.50;;;;;;4998699;28;20023;-88
2022/10/11 11:41:26;;;;;;;12.70;2.67;;;17.10;96.80;;;;;;4956659;28;20130;-88
2022/10/11 11:44:30;;;;;;;11.40;1.95;;;17.20;96.40;;;;;;5009055;28;20022;-88
2022/10/11 11:47:00;;;;;;;10.27;2.58;;;17.30;95.70;;;;;;4969456;28;20034;-88
2022/10/11 11:49:54;;;;;;;10.00;2.45;;;17.40;95.30;;;;;;4997715;28;20046;-88
2022/10/11 11:52:27;;;;;;;15.35;2.90;;;17.50;95.00;;;;;;5006717;28;20058;-88
2022/10/11 11:55:05;;;;;;;14.07;3.10;;;17.60;94.20;;;;;;5006052;28;20022;-88
2022/10/11 11:58:23;;;;;;;8.40;2.45;;;17.70;93.90;;;;;;4998441;28;20030;-87
2022/10/11 12:01:01;;;;;;;7.95;2.30;;;17.80;94.00;;;;;;4980774;28;20034;-88
2022/10/11 12:03:32;;;;;;;8.23;2.33;;;17.80;94.50;;;;;;4988150;28;20062;-88
2022/10/11 12:06:15;;;;;;;10.18;2.70;;;17.90;94.20;;;;;;5009576;28;20014;-88
2022/10/11 12:08:44;;;;;;;7.57;2.40;;;18.10;94.30;;;;;;5000784;28;20030;-89
2022/10/11 12:11:41;;;;;;;11.10;2.60;;;18.10;94.00;;;;;;5004624;28;20018;-90
2022/10/11 12:14:26;;;;;;;13.13;2.55;;;18.20;93.20;;;;;;4990101;28;20395;-90
2022/10/11 12:17:10;;;;;;;7.35;1.95;;;18.30;92.90;;;;;;5009288;28;20037;-90
2022/10/11 12:19:39;;;;;;;13.32;2.25;;;18.40;92.90;;;;;;4983300;28;20480;-90
2022/10/11 12:22:26;;;;;;;9.25;2.30;;;18.50;93.00;;;;;;4996183;28;20030;-91
2022/10/11 12:24:54;;;;;;;9.90;2.17;;;18.60;91.70;;;;;;4996568;28;20022;-90
2022/10/11 12:27:41;;;;;;;18.35;3.85;;;18.60;91.10;;;;;;4995967;28;20022;-90
2022/10/11 12:30:46;;;;;;;11.00;2.55;;;18.70;90.50;;;;;;4998574;28;20115;-90
2022/10/11 12:34:10;;;;;;;11.23;3.03;;;18.80;90.50;;;;;;4984452;28;20030;-90
2022/10/11 12:36:41;;;;;;;11.48;2.10;;;18.80;90.40;;;;;;4991020;28;20033;-90
2022/10/11 12:39:19;;;;;;;9.95;2.55;;;18.90;90.60;;;;;;5016288;28;20053;-91
2022/10/11 12:42:06;;;;;;;8.52;2.58;;;18.90;90.00;;;;;;4998077;28;20066;-90
2022/10/11 12:44:32;;;;;;;10.23;2.42;;;19.00;90.00;;;;;;5008406;28;20026;-90
2022/10/11 12:47:29;;;;;;;9.45;1.98;;;19.10;89.40;;;;;;4989560;28;20022;-90
2022/10/11 12:50:04;;;;;;;10.25;2.53;;;19.10;88.30;;;;;;4990893;28;20034;-87
2022/10/11 12:52:36;;;;;;;10.65;2.10;;;19.20;88.20;;;;;;4997847;28;20031;-84
2022/10/11 12:55:29;;;;;;;12.70;2.17;;;19.30;88.10;;;;;;4993934;28;20117;-84
2022/10/11 12:58:20;;;;;;;9.45;1.80;;;19.40;88.80;;;;;;4993713;28;20057;-84
2022/10/11 13:00:54;;;;;;;;;;;19.50;84.80;;;;;;4994355;28;20081;-84
2022/10/11 13:03:32;;;;;;;11.50;2.20;;;19.50;87.00;;;;;;4993559;28;20026;-84
2022/10/11 13:05:59;;;;;;;8.65;2.10;;;19.60;86.70;;;;;;5004502;28;20030;-84
2022/10/11 13:08:32;;;;;;;10.25;3.05;;;19.60;84.10;;;;;;4996548;28;20478;-84
2022/10/11 13:11:03;;;;;;;7.47;2.28;;;19.60;82.60;;;;;;5003105;28;20394;-84
2022/10/11 13:13:42;;;;;;;7.93;2.03;;;19.70;84.00;;;;;;4999178;28;20034;-84
2022/10/11 13:16:15;;;;;;;10.40;2.45;;;19.80;84.90;;;;;;5005050;28;20380;-84
2022/10/11 13:18:43;;;;;;;8.32;2.55;;;19.90;85.40;;;;;;5012860;28;20430;-84
2022/10/11 13:21:25;;;;;;;9.60;2.38;;;19.90;84.40;;;;;;4996825;28;20476;-84
2022/10/11 13:23:56;;;;;;;9.45;1.95;;;20.00;84.70;;;;;;5010822;28;20109;-84